Mega Smeralda — ICIU — position and weather

sailwx.info

Track history (hours):
 
Tides and Currents Weather Stations Pressure Air Temp Water Temp Dewpoint Dewpoint Depression Visibility Wind Speed Wind Dir Waves Ship Positions

Mega Smeralda

Last reported at 2014-Aug-20 12:20 UTC. Time now 2014-Aug-20 12:48 UTC.
Position N 42°06' E 007°58'.

Length 171 m; draft 6.3 m.

Type: Passenger vessel. MMSI: 247228600.

Date/timePositionNaut miles runAvg speedWind from/ knotsBaromVisibWave heightAir tempDewpointWater temp
2014-Aug-20 12:20N 42°06' E 007°58'1417.9
2014-Aug-20 11:34N 42°13' E 007°42'1818.0
2014-Aug-20 10:33N 42°23' E 007°21'1818.2
2014-Aug-20 09:33N 42°32' E 007°00'1818.2
2014-Aug-20 08:34N 42°42' E 006°39'1818.1
2014-Aug-20 07:34N 42°52' E 006°18'1817.7
2014-Aug-20 06:34N 43°03' E 005°60'5 4.9
2014-Aug-20 05:33N 43°07' E 005°56'0 0.0
2014-Aug-20 04:33N 43°07' E 005°56'0 0.0
2014-Aug-20 03:33N 43°07' E 005°56'1110.8
2014-Aug-20 02:33N 42°58' E 006°04'1717.2
2014-Aug-20 01:33N 42°48' E 006°24'1716.9
2014-Aug-20 00:33N 42°40' E 006°44'1716.8
2014-Aug-19 23:34N 42°32' E 007°04'1717.1
2014-Aug-19 22:33N 42°22' E 007°23'1817.5
2014-Aug-19 21:33N 42°11' E 007°42'1817.5
2014-Aug-19 20:32N 42°03' E 008°03'1717.3
2014-Aug-19 19:33N 41°54' E 008°22'66 7.9
2014-Aug-19 11:12N 42°30' E 007°08'3218.9
2014-Aug-19 09:32N 42°46' E 006°31'1818.7
2014-Aug-19 08:33N 42°56' E 006°10'1515.2
2014-Aug-19 07:34N 43°07' E 005°56'0 0.2
2014-Aug-19 06:33N 43°07' E 005°56'1414.4
2014-Aug-19 05:34N 42°56' E 006°08'2020.2
2014-Aug-19 04:33N 42°45' E 006°32'2119.8
2014-Aug-19 03:31N 42°35' E 006°56'6619.7
2014-Aug-19 00:12N 41°59' E 008°10'13 3.6
2014-Aug-18 20:29N 41°55' E 008°28'1919.6
2014-Aug-18 19:31N 42°12' E 008°17'2518.8
2014-Aug-18 18:11N 42°35' E 008°02'1719.2
2014-Aug-18 17:17N 42°50' E 007°52'2119.3
2014-Aug-18 16:13N 43°09' E 007°39'1319.2
2014-Aug-18 15:33N 43°21' E 007°31'1818.7
2014-Aug-18 14:33N 43°37' E 007°20'5 4.7
2014-Aug-18 13:28N 43°42' E 007°17'1111.7
2014-Aug-18 12:33N 43°32' E 007°22'2219.6
2014-Aug-18 11:25N 43°12' E 007°36'1719.7
2014-Aug-18 10:33N 42°56' E 007°47'31 3.4
2014-Aug-18 01:31N 42°29' E 008°07'1918.9
2014-Aug-18 00:30N 42°46' E 007°55'36 6.1
2014-Aug-17 18:34N 43°22' E 007°48'1919.2
2014-Aug-17 17:34N 43°10' E 008°08'1918.8
2014-Aug-17 16:33N 42°57' E 008°27'2019.2
2014-Aug-17 15:31N 42°44' E 008°48'8 7.3
2014-Aug-17 14:23N 42°38' E 008°56'3912.4
2014-Aug-17 11:13N 42°45' E 008°04'1319.7
2014-Aug-17 10:33N 42°46' E 007°46'3919.1
2014-Aug-17 08:30N 42°51' E 006°53'1616.9
2014-Aug-17 07:33N 42°53' E 006°32'1616.1
2014-Aug-17 06:33N 42°56' E 006°10'1515.0
2014-Aug-17 05:33N 43°06' E 005°55'1 1.2
2014-Aug-17 04:33N 43°07' E 005°56'9 8.7
2014-Aug-17 03:34N 42°60' E 006°03'1919.4
2014-Aug-17 02:33N 42°56' E 006°29'2020.0
2014-Aug-17 01:34N 42°58' E 006°56'1919.1
2014-Aug-17 00:34N 42°59' E 007°22'1919.0
2014-Aug-16 23:32N 42°60' E 007°48'1818.6
2014-Aug-16 22:34N 43°01' E 008°13'1818.4
2014-Aug-16 21:34N 43°02' E 008°39'1918.6
2014-Aug-16 20:33N 43°03' E 009°04'1817.9
2014-Aug-16 19:34N 43°01' E 009°28'8 2.0
2014-Aug-16 15:26N 43°01' E 009°40'1517.6
2014-Aug-16 14:34N 43°14' E 009°51'1818.2
2014-Aug-16 13:34N 43°27' E 010°09'9 9.1
2014-Aug-16 12:33N 43°33' E 010°18'0 0.0
2014-Aug-16 11:34N 43°33' E 010°18'7 7.4
2014-Aug-16 10:33N 43°28' E 010°11'2019.7
2014-Aug-16 09:33N 43°14' E 009°51'61 8.1
2014-Aug-16 02:04N 43°19' E 008°28'918.7
2014-Aug-16 01:33N 43°23' E 008°16'2718.2
2014-Aug-16 00:05N 43°33' E 007°42'1017.9
2014-Aug-15 23:33N 43°36' E 007°30'1010.4
2014-Aug-15 22:33N 43°42' E 007°17'0 0.0
2014-Aug-15 21:33N 43°42' E 007°17'9 9.2
2014-Aug-15 20:33N 43°35' E 007°26'3718.5
2014-Aug-15 18:34N 43°11' E 008°05'1817.6
2014-Aug-15 17:33N 42°60' E 008°23'47 5.3
2014-Aug-15 08:33N 43°30' E 007°33'1616.1
2014-Aug-15 07:33N 43°41' E 007°17'0 0.1
2014-Aug-15 06:34N 43°41' E 007°17'1816.9
2014-Aug-15 05:30N 43°25' E 007°28'19 1.5
2014-Aug-14 16:31N 43°08' E 007°40'1919.2
2014-Aug-14 15:33N 43°25' E 007°28'1818.3
2014-Aug-14 14:33N 43°41' E 007°17'0 0.0
2014-Aug-14 13:33N 43°41' E 007°17'8 7.7
2014-Aug-14 12:33N 43°34' E 007°21'1918.8
2014-Aug-14 11:33N 43°17' E 007°33'55 3.9
2014-Aug-13 21:33N 42°46' E 006°31'1918.8
2014-Aug-13 20:33N 42°56' E 006°10'1515.1
2014-Aug-13 19:34N 43°07' E 005°56'0 0.3
2014-Aug-13 18:33N 43°07' E 005°56'0 0.0
2014-Aug-13 17:32N 43°07' E 005°56'0 0.0
2014-Aug-13 16:32N 43°07' E 005°56'0 0.0
2014-Aug-13 15:33N 43°07' E 005°56'2 1.7
2014-Aug-13 14:33N 43°05' E 005°56'1616.1
2014-Aug-13 13:33N 42°54' E 006°12'1817.9
2014-Aug-13 12:33N 42°45' E 006°32'1818.3
2014-Aug-13 11:33N 42°35' E 006°54'28 2.6
2014-Aug-13 00:33N 42°20' E 007°26'1616.3
2014-Aug-12 23:33N 42°30' E 007°08'1716.6
2014-Aug-12 22:34N 42°38' E 006°49'1616.5
2014-Aug-12 21:33N 42°46' E 006°30'1615.5
2014-Aug-12 20:33N 42°55' E 006°12'1515.2
2014-Aug-12 19:34N 43°05' E 005°57'2 1.9
2014-Aug-12 18:33N 43°07' E 005°56'1 1.4
2014-Aug-12 17:34N 43°06' E 005°55'1515.4
2014-Aug-12 16:34N 42°55' E 006°10'1818.0
2014-Aug-12 15:33N 42°46' E 006°31'1818.0
2014-Aug-12 14:33N 42°36' E 006°52'1818.0
2014-Aug-12 13:33N 42°26' E 007°13'1817.8
2014-Aug-12 12:33N 42°17' E 007°33'1817.7
2014-Aug-12 11:33N 42°07' E 007°53'1818.0
2014-Aug-12 10:33N 41°58' E 008°14'1817.9
2014-Aug-12 09:33N 41°50' E 008°35'13 2.1
2014-Aug-12 03:17N 41°56' E 008°19'1012.9
2014-Aug-12 02:31N 42°01' E 008°08'1313.5
2014-Aug-12 01:33N 42°08' E 007°53'1413.9
2014-Aug-12 00:33N 42°15' E 007°37'1414.2
2014-Aug-11 23:33N 42°23' E 007°21'1414.3
2014-Aug-11 22:33N 42°31' E 007°05'1414.0
2014-Aug-11 21:33N 42°38' E 006°49'1414.0
2014-Aug-11 20:33N 42°45' E 006°32'1413.9
2014-Aug-11 19:33N 42°52' E 006°16'1414.3
2014-Aug-11 18:33N 43°01' E 006°01'7 7.0
2014-Aug-11 17:33N 43°07' E 005°56'0 0.0
2014-Aug-11 16:33N 43°07' E 005°56'3 3.2
2014-Aug-11 15:34N 43°04' E 005°58'1817.6
2014-Aug-11 14:33N 42°52' E 006°16'1818.4
2014-Aug-11 13:34N 42°42' E 006°37'1918.3
2014-Aug-11 12:32N 42°33' E 006°58'3718.8
2014-Aug-11 10:33N 42°13' E 007°41'10 1.3
2014-Aug-11 03:10N 42°18' E 007°31'1619.0
2014-Aug-11 02:19N 42°27' E 007°12'1619.3
2014-Aug-11 01:29N 42°35' E 006°53'1819.2
2014-Aug-11 00:33N 42°43' E 006°32'1818.4
2014-Aug-10 23:33N 42°53' E 006°11'1717.3
2014-Aug-10 22:33N 43°06' E 005°55'2 1.5
2014-Aug-10 21:34N 43°07' E 005°56'10 9.9
2014-Aug-10 20:33N 42°59' E 006°03'2019.9
2014-Aug-10 19:33N 42°53' E 006°29'2020.1
2014-Aug-10 18:33N 42°52' E 006°57'1919.1
2014-Aug-10 17:33N 42°49' E 007°22'1919.3
2014-Aug-10 16:33N 42°46' E 007°48'2019.6
2014-Aug-10 15:33N 42°44' E 008°15'1919.5
2014-Aug-10 14:33N 42°41' E 008°41'1111.4
2014-Aug-10 13:33N 42°38' E 008°56'3 2.8
2014-Aug-10 12:33N 42°40' E 008°54'  
Track history (hours):
 
Tides and Currents Weather Stations Pressure Air Temp Water Temp Dewpoint Dewpoint Depression Visibility Wind Speed Wind Dir Waves Ship Positions

Mega Smeralda

Last reported at 2014-Aug-20 12:20 UTC. Time now 2014-Aug-20 12:48 UTC.
Position N 42°06' E 007°58'.

Length 171 m; draft 6.3 m.

Type: Passenger vessel. MMSI: 247228600.

Date/timePositionNaut miles runAvg speedWind from/ knotsBaromVisibWave heightAir tempDewpointWater temp
2014-Aug-20 12:20N 42°06' E 007°58'1417.9
2014-Aug-20 11:34N 42°13' E 007°42'1818.0
2014-Aug-20 10:33N 42°23' E 007°21'1818.2
2014-Aug-20 09:33N 42°32' E 007°00'1818.2
2014-Aug-20 08:34N 42°42' E 006°39'1818.1
2014-Aug-20 07:34N 42°52' E 006°18'1817.7
2014-Aug-20 06:34N 43°03' E 005°60'5 4.9
2014-Aug-20 05:33N 43°07' E 005°56'0 0.0
2014-Aug-20 04:33N 43°07' E 005°56'0 0.0
2014-Aug-20 03:33N 43°07' E 005°56'1110.8
2014-Aug-20 02:33N 42°58' E 006°04'1717.2
2014-Aug-20 01:33N 42°48' E 006°24'1716.9
2014-Aug-20 00:33N 42°40' E 006°44'1716.8
2014-Aug-19 23:34N 42°32' E 007°04'1717.1
2014-Aug-19 22:33N 42°22' E 007°23'1817.5
2014-Aug-19 21:33N 42°11' E 007°42'1817.5
2014-Aug-19 20:32N 42°03' E 008°03'1717.3
2014-Aug-19 19:33N 41°54' E 008°22'66 7.9
2014-Aug-19 11:12N 42°30' E 007°08'3218.9
2014-Aug-19 09:32N 42°46' E 006°31'1818.7
2014-Aug-19 08:33N 42°56' E 006°10'1515.2
2014-Aug-19 07:34N 43°07' E 005°56'0 0.2
2014-Aug-19 06:33N 43°07' E 005°56'1414.4
2014-Aug-19 05:34N 42°56' E 006°08'2020.2
2014-Aug-19 04:33N 42°45' E 006°32'2119.8
2014-Aug-19 03:31N 42°35' E 006°56'6619.7
2014-Aug-19 00:12N 41°59' E 008°10'13 3.6
2014-Aug-18 20:29N 41°55' E 008°28'1919.6
2014-Aug-18 19:31N 42°12' E 008°17'2518.8
2014-Aug-18 18:11N 42°35' E 008°02'1719.2
2014-Aug-18 17:17N 42°50' E 007°52'2119.3
2014-Aug-18 16:13N 43°09' E 007°39'1319.2
2014-Aug-18 15:33N 43°21' E 007°31'1818.7
2014-Aug-18 14:33N 43°37' E 007°20'5 4.7
2014-Aug-18 13:28N 43°42' E 007°17'1111.7
2014-Aug-18 12:33N 43°32' E 007°22'2219.6
2014-Aug-18 11:25N 43°12' E 007°36'1719.7
2014-Aug-18 10:33N 42°56' E 007°47'31 3.4
2014-Aug-18 01:31N 42°29' E 008°07'1918.9
2014-Aug-18 00:30N 42°46' E 007°55'36 6.1
2014-Aug-17 18:34N 43°22' E 007°48'1919.2
2014-Aug-17 17:34N 43°10' E 008°08'1918.8
2014-Aug-17 16:33N 42°57' E 008°27'2019.2
2014-Aug-17 15:31N 42°44' E 008°48'8 7.3
2014-Aug-17 14:23N 42°38' E 008°56'3912.4
2014-Aug-17 11:13N 42°45' E 008°04'1319.7
2014-Aug-17 10:33N 42°46' E 007°46'3919.1
2014-Aug-17 08:30N 42°51' E 006°53'1616.9
2014-Aug-17 07:33N 42°53' E 006°32'1616.1
2014-Aug-17 06:33N 42°56' E 006°10'1515.0
2014-Aug-17 05:33N 43°06' E 005°55'1 1.2
2014-Aug-17 04:33N 43°07' E 005°56'9 8.7
2014-Aug-17 03:34N 42°60' E 006°03'1919.4
2014-Aug-17 02:33N 42°56' E 006°29'2020.0
2014-Aug-17 01:34N 42°58' E 006°56'1919.1
2014-Aug-17 00:34N 42°59' E 007°22'1919.0
2014-Aug-16 23:32N 42°60' E 007°48'1818.6
2014-Aug-16 22:34N 43°01' E 008°13'1818.4
2014-Aug-16 21:34N 43°02' E 008°39'1918.6
2014-Aug-16 20:33N 43°03' E 009°04'1817.9
2014-Aug-16 19:34N 43°01' E 009°28'8 2.0
2014-Aug-16 15:26N 43°01' E 009°40'1517.6
2014-Aug-16 14:34N 43°14' E 009°51'1818.2
2014-Aug-16 13:34N 43°27' E 010°09'9 9.1
2014-Aug-16 12:33N 43°33' E 010°18'0 0.0
2014-Aug-16 11:34N 43°33' E 010°18'7 7.4
2014-Aug-16 10:33N 43°28' E 010°11'2019.7
2014-Aug-16 09:33N 43°14' E 009°51'61 8.1
2014-Aug-16 02:04N 43°19' E 008°28'918.7
2014-Aug-16 01:33N 43°23' E 008°16'2718.2
2014-Aug-16 00:05N 43°33' E 007°42'1017.9
2014-Aug-15 23:33N 43°36' E 007°30'1010.4
2014-Aug-15 22:33N 43°42' E 007°17'0 0.0
2014-Aug-15 21:33N 43°42' E 007°17'9 9.2
2014-Aug-15 20:33N 43°35' E 007°26'3718.5
2014-Aug-15 18:34N 43°11' E 008°05'1817.6
2014-Aug-15 17:33N 42°60' E 008°23'47 5.3
2014-Aug-15 08:33N 43°30' E 007°33'1616.1
2014-Aug-15 07:33N 43°41' E 007°17'0 0.1
2014-Aug-15 06:34N 43°41' E 007°17'1816.9
2014-Aug-15 05:30N 43°25' E 007°28'19 1.5
2014-Aug-14 16:31N 43°08' E 007°40'1919.2
2014-Aug-14 15:33N 43°25' E 007°28'1818.3
2014-Aug-14 14:33N 43°41' E 007°17'0 0.0
2014-Aug-14 13:33N 43°41' E 007°17'8 7.7
2014-Aug-14 12:33N 43°34' E 007°21'1918.8
2014-Aug-14 11:33N 43°17' E 007°33'55 3.9
2014-Aug-13 21:33N 42°46' E 006°31'1918.8
2014-Aug-13 20:33N 42°56' E 006°10'1515.1
2014-Aug-13 19:34N 43°07' E 005°56'0 0.3
2014-Aug-13 18:33N 43°07' E 005°56'0 0.0
2014-Aug-13 17:32N 43°07' E 005°56'0 0.0
2014-Aug-13 16:32N 43°07' E 005°56'0 0.0
2014-Aug-13 15:33N 43°07' E 005°56'2 1.7
2014-Aug-13 14:33N 43°05' E 005°56'1616.1
2014-Aug-13 13:33N 42°54' E 006°12'1817.9
2014-Aug-13 12:33N 42°45' E 006°32'1818.3
2014-Aug-13 11:33N 42°35' E 006°54'28 2.6
2014-Aug-13 00:33N 42°20' E 007°26'1616.3
2014-Aug-12 23:33N 42°30' E 007°08'1716.6
2014-Aug-12 22:34N 42°38' E 006°49'1616.5
2014-Aug-12 21:33N 42°46' E 006°30'1615.5
2014-Aug-12 20:33N 42°55' E 006°12'1515.2
2014-Aug-12 19:34N 43°05' E 005°57'2 1.9
2014-Aug-12 18:33N 43°07' E 005°56'1 1.4
2014-Aug-12 17:34N 43°06' E 005°55'1515.4
2014-Aug-12 16:34N 42°55' E 006°10'1818.0
2014-Aug-12 15:33N 42°46' E 006°31'1818.0
2014-Aug-12 14:33N 42°36' E 006°52'1818.0
2014-Aug-12 13:33N 42°26' E 007°13'1817.8
2014-Aug-12 12:33N 42°17' E 007°33'1817.7
2014-Aug-12 11:33N 42°07' E 007°53'1818.0
2014-Aug-12 10:33N 41°58' E 008°14'1817.9
2014-Aug-12 09:33N 41°50' E 008°35'13 2.1
2014-Aug-12 03:17N 41°56' E 008°19'1012.9
2014-Aug-12 02:31N 42°01' E 008°08'1313.5
2014-Aug-12 01:33N 42°08' E 007°53'1413.9
2014-Aug-12 00:33N 42°15' E 007°37'1414.2
2014-Aug-11 23:33N 42°23' E 007°21'1414.3
2014-Aug-11 22:33N 42°31' E 007°05'1414.0
2014-Aug-11 21:33N 42°38' E 006°49'1414.0
2014-Aug-11 20:33N 42°45' E 006°32'1413.9
2014-Aug-11 19:33N 42°52' E 006°16'1414.3
2014-Aug-11 18:33N 43°01' E 006°01'7 7.0
2014-Aug-11 17:33N 43°07' E 005°56'0 0.0
2014-Aug-11 16:33N 43°07' E 005°56'3 3.2
2014-Aug-11 15:34N 43°04' E 005°58'1817.6
2014-Aug-11 14:33N 42°52' E 006°16'1818.4
2014-Aug-11 13:34N 42°42' E 006°37'1918.3
2014-Aug-11 12:32N 42°33' E 006°58'3718.8
2014-Aug-11 10:33N 42°13' E 007°41'10 1.3
2014-Aug-11 03:10N 42°18' E 007°31'1619.0
2014-Aug-11 02:19N 42°27' E 007°12'1619.3
2014-Aug-11 01:29N 42°35' E 006°53'1819.2
2014-Aug-11 00:33N 42°43' E 006°32'1818.4
2014-Aug-10 23:33N 42°53' E 006°11'1717.3
2014-Aug-10 22:33N 43°06' E 005°55'2 1.5
2014-Aug-10 21:34N 43°07' E 005°56'10 9.9
2014-Aug-10 20:33N 42°59' E 006°03'2019.9
2014-Aug-10 19:33N 42°53' E 006°29'2020.1
2014-Aug-10 18:33N 42°52' E 006°57'1919.1
2014-Aug-10 17:33N 42°49' E 007°22'1919.3
2014-Aug-10 16:33N 42°46' E 007°48'2019.6
2014-Aug-10 15:33N 42°44' E 008°15'1919.5
2014-Aug-10 14:33N 42°41' E 008°41'1111.4
2014-Aug-10 13:33N 42°38' E 008°56'3 2.8
2014-Aug-10 12:33N 42°40' E 008°54'  

Dump ship's entire track history